sensor_id;sensor_type;location;lat;lon;timestamp;P1;durP1;ratioP1;P2;durP2;ratioP2
35522;SDS011;61478;50.820;4.330;2023-03-01T00:07:56;12.90;;;8.68;;
35522;SDS011;61478;50.820;4.330;2023-03-01T00:10:23;14.93;;;9.40;;
35522;SDS011;61478;50.820;4.330;2023-03-01T00:12:49;14.45;;;9.13;;
35522;SDS011;61478;50.820;4.330;2023-03-01T00:18:37;13.30;;;8.77;;
35522;SDS011;61478;50.820;4.330;2023-03-01T00:21:03;12.73;;;9.00;;
35522;SDS011;61478;50.820;4.330;2023-03-01T00:23:31;10.15;;;8.80;;
35522;SDS011;61478;50.820;4.330;2023-03-01T00:26:00;14.73;;;8.77;;
35522;SDS011;61478;50.820;4.330;2023-03-01T00:28:26;13.43;;;9.65;;
35522;SDS011;61478;50.820;4.330;2023-03-01T00:30:52;11.90;;;8.38;;
35522;SDS011;61478;50.820;4.330;2023-03-01T00:33:18;11.88;;;9.40;;
35522;SDS011;61478;50.820;4.330;2023-03-01T00:35:44;12.27;;;9.52;;
35522;SDS011;61478;50.820;4.330;2023-03-01T00:38:10;12.02;;;8.85;;
35522;SDS011;61478;50.820;4.330;2023-03-01T00:40:36;14.90;;;9.27;;
35522;SDS011;61478;50.820;4.330;2023-03-01T00:43:02;13.38;;;8.88;;
35522;SDS011;61478;50.820;4.330;2023-03-01T00:45:29;13.57;;;9.25;;
35522;SDS011;61478;50.820;4.330;2023-03-01T00:47:56;12.68;;;8.73;;
35522;SDS011;61478;50.820;4.330;2023-03-01T00:50:23;10.65;;;9.02;;
35522;SDS011;61478;50.820;4.330;2023-03-01T00:52:52;12.80;;;9.30;;
35522;SDS011;61478;50.820;4.330;2023-03-01T00:55:21;12.77;;;9.30;;
35522;SDS011;61478;50.820;4.330;2023-03-01T00:57:47;11.98;;;9.18;;
35522;SDS011;61478;50.820;4.330;2023-03-01T01:00:13;10.48;;;8.13;;
35522;SDS011;61478;50.820;4.330;2023-03-01T01:02:39;14.48;;;7.45;;
35522;SDS011;61478;50.820;4.330;2023-03-01T01:05:05;12.68;;;7.38;;
35522;SDS011;61478;50.820;4.330;2023-03-01T01:07:31;11.75;;;7.68;;
35522;SDS011;61478;50.820;4.330;2023-03-01T01:09:57;10.98;;;7.57;;
35522;SDS011;61478;50.820;4.330;2023-03-01T01:12:23;9.10;;;8.18;;
35522;SDS011;61478;50.820;4.330;2023-03-01T01:14:49;11.40;;;9.05;;
35522;SDS011;61478;50.820;4.330;2023-03-01T01:17:16;11.27;;;7.05;;
35522;SDS011;61478;50.820;4.330;2023-03-01T01:19:42;11.73;;;7.82;;
35522;SDS011;61478;50.820;4.330;2023-03-01T01:22:08;10.27;;;7.53;;
35522;SDS011;61478;50.820;4.330;2023-03-01T01:24:34;10.05;;;8.13;;
35522;SDS011;61478;50.820;4.330;2023-03-01T01:27:00;10.88;;;9.05;;
35522;SDS011;61478;50.820;4.330;2023-03-01T01:29:26;10.13;;;7.22;;
35522;SDS011;61478;50.820;4.330;2023-03-01T01:31:52;9.95;;;7.75;;
35522;SDS011;61478;50.820;4.330;2023-03-01T01:34:18;9.00;;;6.85;;
35522;SDS011;61478;50.820;4.330;2023-03-01T01:36:49;11.38;;;7.72;;
35522;SDS011;61478;50.820;4.330;2023-03-01T01:39:19;13.40;;;7.97;;
35522;SDS011;61478;50.820;4.330;2023-03-01T01:41:48;9.48;;;7.82;;
35522;SDS011;61478;50.820;4.330;2023-03-01T01:44:22;9.23;;;7.07;;
35522;SDS011;61478;50.820;4.330;2023-03-01T01:51:49;11.05;;;6.97;;
35522;SDS011;61478;50.820;4.330;2023-03-01T01:54:30;10.57;;;6.90;;
35522;SDS011;61478;50.820;4.330;2023-03-01T01:57:03;9.40;;;7.63;;
35522;SDS011;61478;50.820;4.330;2023-03-01T01:59:36;10.00;;;7.40;;
35522;SDS011;61478;50.820;4.330;2023-03-01T02:02:04;11.27;;;7.85;;
35522;SDS011;61478;50.820;4.330;2023-03-01T02:04:31;11.82;;;8.75;;
35522;SDS011;61478;50.820;4.330;2023-03-01T02:07:00;12.70;;;8.43;;
35522;SDS011;61478;50.820;4.330;2023-03-01T02:09:31;11.50;;;8.20;;
35522;SDS011;61478;50.820;4.330;2023-03-01T02:11:58;11.88;;;8.73;;
35522;SDS011;61478;50.820;4.330;2023-03-01T02:14:25;9.93;;;7.85;;
35522;SDS011;61478;50.820;4.330;2023-03-01T02:16:51;11.45;;;8.13;;
35522;SDS011;61478;50.820;4.330;2023-03-01T02:19:27;9.55;;;8.00;;
35522;SDS011;61478;50.820;4.330;2023-03-01T02:22:12;11.95;;;8.38;;
35522;SDS011;61478;50.820;4.330;2023-03-01T02:30:14;12.20;;;8.35;;
35522;SDS011;61478;50.820;4.330;2023-03-01T02:32:40;10.43;;;8.57;;
35522;SDS011;61478;50.820;4.330;2023-03-01T02:35:12;14.05;;;8.60;;
35522;SDS011;61478;50.820;4.330;2023-03-01T02:37:41;10.57;;;8.75;;
35522;SDS011;61478;50.820;4.330;2023-03-01T02:40:09;11.50;;;8.80;;
35522;SDS011;61478;50.820;4.330;2023-03-01T02:42:54;10.30;;;8.23;;
35522;SDS011;61478;50.820;4.330;2023-03-01T02:45:23;12.15;;;7.45;;
35522;SDS011;61478;50.820;4.330;2023-03-01T02:47:50;11.75;;;7.75;;
35522;SDS011;61478;50.820;4.330;2023-03-01T02:50:22;12.85;;;8.77;;
35522;SDS011;61478;50.820;4.330;2023-03-01T02:55:38;11.43;;;8.70;;
35522;SDS011;61478;50.820;4.330;2023-03-01T02:58:04;9.77;;;8.30;;
35522;SDS011;61478;50.820;4.330;2023-03-01T03:00:33;9.48;;;8.05;;
35522;SDS011;61478;50.820;4.330;2023-03-01T03:03:05;11.63;;;9.27;;
35522;SDS011;61478;50.820;4.330;2023-03-01T03:05:32;9.95;;;7.88;;
35522;SDS011;61478;50.820;4.330;2023-03-01T03:07:59;11.38;;;8.27;;
35522;SDS011;61478;50.820;4.330;2023-03-01T03:10:30;10.20;;;9.18;;
35522;SDS011;61478;50.820;4.330;2023-03-01T03:13:05;10.25;;;9.07;;
35522;SDS011;61478;50.820;4.330;2023-03-01T03:15:34;11.93;;;10.05;;
35522;SDS011;61478;50.820;4.330;2023-03-01T03:18:05;9.80;;;8.10;;
35522;SDS011;61478;50.820;4.330;2023-03-01T03:20:33;9.80;;;8.35;;
35522;SDS011;61478;50.820;4.330;2023-03-01T03:23:01;13.23;;;9.07;;
35522;SDS011;61478;50.820;4.330;2023-03-01T03:25:28;15.65;;;8.02;;
35522;SDS011;61478;50.820;4.330;2023-03-01T03:27:54;11.07;;;7.93;;
35522;SDS011;61478;50.820;4.330;2023-03-01T03:30:25;9.13;;;8.07;;
35522;SDS011;61478;50.820;4.330;2023-03-01T03:32:55;10.90;;;8.75;;
35522;SDS011;61478;50.820;4.330;2023-03-01T03:35:25;13.95;;;8.25;;
35522;SDS011;61478;50.820;4.330;2023-03-01T03:38:00;11.32;;;7.47;;
35522;SDS011;61478;50.820;4.330;2023-03-01T03:40:35;11.30;;;8.30;;
35522;SDS011;61478;50.820;4.330;2023-03-01T03:43:06;10.98;;;7.20;;
35522;SDS011;61478;50.820;4.330;2023-03-01T03:45:34;11.30;;;8.07;;
35522;SDS011;61478;50.820;4.330;2023-03-01T03:48:01;11.55;;;8.13;;
35522;SDS011;61478;50.820;4.330;2023-03-01T03:50:29;9.43;;;7.60;;
35522;SDS011;61478;50.820;4.330;2023-03-01T03:52:56;14.07;;;7.78;;
35522;SDS011;61478;50.820;4.330;2023-03-01T03:55:22;9.43;;;7.50;;
35522;SDS011;61478;50.820;4.330;2023-03-01T03:57:48;9.65;;;7.90;;
35522;SDS011;61478;50.820;4.330;2023-03-01T04:00:17;11.40;;;8.50;;
35522;SDS011;61478;50.820;4.330;2023-03-01T04:02:45;10.07;;;7.82;;
35522;SDS011;61478;50.820;4.330;2023-03-01T04:05:12;11.15;;;7.95;;
35522;SDS011;61478;50.820;4.330;2023-03-01T04:07:40;13.27;;;8.52;;
35522;SDS011;61478;50.820;4.330;2023-03-01T04:10:08;10.18;;;7.88;;
35522;SDS011;61478;50.820;4.330;2023-03-01T04:12:35;15.32;;;8.27;;
35522;SDS011;61478;50.820;4.330;2023-03-01T04:15:02;14.23;;;8.18;;
35522;SDS011;61478;50.820;4.330;2023-03-01T04:17:38;12.70;;;8.63;;
35522;SDS011;61478;50.820;4.330;2023-03-01T04:20:15;12.48;;;8.55;;
35522;SDS011;61478;50.820;4.330;2023-03-01T04:22:43;11.02;;;9.10;;
35522;SDS011;61478;50.820;4.330;2023-03-01T04:25:12;10.55;;;8.52;;
35522;SDS011;61478;50.820;4.330;2023-03-01T04:27:39;9.35;;;8.15;;
35522;SDS011;61478;50.820;4.330;2023-03-01T04:30:06;14.48;;;8.38;;
35522;SDS011;61478;50.820;4.330;2023-03-01T04:32:33;14.57;;;8.38;;
35522;SDS011;61478;50.820;4.330;2023-03-01T04:34:59;11.85;;;9.15;;
35522;SDS011;61478;50.820;4.330;2023-03-01T04:37:26;13.18;;;9.00;;
35522;SDS011;61478;50.820;4.330;2023-03-01T04:39:52;11.18;;;8.25;;
35522;SDS011;61478;50.820;4.330;2023-03-01T04:42:18;10.70;;;8.23;;
35522;SDS011;61478;50.820;4.330;2023-03-01T04:44:44;17.92;;;9.18;;
35522;SDS011;61478;50.820;4.330;2023-03-01T04:47:11;10.70;;;8.50;;
35522;SDS011;61478;50.820;4.330;2023-03-01T04:49:37;12.90;;;8.55;;
35522;SDS011;61478;50.820;4.330;2023-03-01T04:52:03;14.50;;;8.73;;
35522;SDS011;61478;50.820;4.330;2023-03-01T04:54:32;16.30;;;8.98;;
35522;SDS011;61478;50.820;4.330;2023-03-01T04:56:59;10.35;;;8.73;;
35522;SDS011;61478;50.820;4.330;2023-03-01T04:59:26;11.77;;;8.90;;
35522;SDS011;61478;50.820;4.330;2023-03-01T05:01:53;12.32;;;8.50;;
35522;SDS011;61478;50.820;4.330;2023-03-01T05:04:25;12.63;;;8.75;;
35522;SDS011;61478;50.820;4.330;2023-03-01T05:06:51;12.73;;;8.57;;
35522;SDS011;61478;50.820;4.330;2023-03-01T05:09:18;11.85;;;8.73;;
35522;SDS011;61478;50.820;4.330;2023-03-01T05:11:44;12.70;;;8.63;;
35522;SDS011;61478;50.820;4.330;2023-03-01T05:14:10;12.30;;;8.65;;
35522;SDS011;61478;50.820;4.330;2023-03-01T05:16:36;11.68;;;8.60;;
35522;SDS011;61478;50.820;4.330;2023-03-01T05:19:02;10.43;;;8.38;;
35522;SDS011;61478;50.820;4.330;2023-03-01T05:21:40;15.98;;;9.90;;
35522;SDS011;61478;50.820;4.330;2023-03-01T05:24:29;10.25;;;8.75;;
35522;SDS011;61478;50.820;4.330;2023-03-01T05:26:57;11.68;;;8.48;;
35522;SDS011;61478;50.820;4.330;2023-03-01T05:29:23;14.38;;;9.25;;
35522;SDS011;61478;50.820;4.330;2023-03-01T05:31:52;16.00;;;8.82;;
35522;SDS011;61478;50.820;4.330;2023-03-01T05:34:33;15.68;;;9.35;;
35522;SDS011;61478;50.820;4.330;2023-03-01T05:37:00;14.80;;;8.80;;
35522;SDS011;61478;50.820;4.330;2023-03-01T05:39:28;13.32;;;8.52;;
35522;SDS011;61478;50.820;4.330;2023-03-01T05:41:56;21.33;;;9.73;;
35522;SDS011;61478;50.820;4.330;2023-03-01T05:44:23;19.30;;;9.48;;
35522;SDS011;61478;50.820;4.330;2023-03-01T05:46:50;13.00;;;8.85;;
35522;SDS011;61478;50.820;4.330;2023-03-01T05:49:16;10.23;;;8.65;;
35522;SDS011;61478;50.820;4.330;2023-03-01T05:51:43;9.63;;;8.60;;
35522;SDS011;61478;50.820;4.330;2023-03-01T05:54:13;13.25;;;8.93;;
35522;SDS011;61478;50.820;4.330;2023-03-01T05:56:39;18.45;;;10.15;;
35522;SDS011;61478;50.820;4.330;2023-03-01T05:59:05;13.25;;;10.07;;
35522;SDS011;61478;50.820;4.330;2023-03-01T06:01:32;13.63;;;9.70;;
35522;SDS011;61478;50.820;4.330;2023-03-01T06:03:59;12.00;;;9.82;;
35522;SDS011;61478;50.820;4.330;2023-03-01T06:06:25;14.30;;;9.35;;
35522;SDS011;61478;50.820;4.330;2023-03-01T06:08:51;16.33;;;9.38;;
35522;SDS011;61478;50.820;4.330;2023-03-01T06:11:18;14.48;;;9.90;;
35522;SDS011;61478;50.820;4.330;2023-03-01T06:13:45;15.40;;;10.07;;
35522;SDS011;61478;50.820;4.330;2023-03-01T06:16:13;12.52;;;9.80;;
35522;SDS011;61478;50.820;4.330;2023-03-01T06:18:39;21.67;;;11.73;;
35522;SDS011;61478;50.820;4.330;2023-03-01T06:21:06;18.02;;;9.82;;
35522;SDS011;61478;50.820;4.330;2023-03-01T06:23:33;13.85;;;9.98;;
35522;SDS011;61478;50.820;4.330;2023-03-01T06:25:59;15.18;;;10.05;;
35522;SDS011;61478;50.820;4.330;2023-03-01T06:28:26;19.27;;;10.15;;
35522;SDS011;61478;50.820;4.330;2023-03-01T06:30:52;12.90;;;9.85;;
35522;SDS011;61478;50.820;4.330;2023-03-01T06:33:18;14.80;;;10.00;;
35522;SDS011;61478;50.820;4.330;2023-03-01T06:35:49;18.75;;;10.68;;
35522;SDS011;61478;50.820;4.330;2023-03-01T06:38:16;19.42;;;9.80;;
35522;SDS011;61478;50.820;4.330;2023-03-01T06:40:44;20.48;;;10.93;;
35522;SDS011;61478;50.820;4.330;2023-03-01T06:43:10;17.25;;;11.07;;
35522;SDS011;61478;50.820;4.330;2023-03-01T06:45:36;17.05;;;10.60;;
35522;SDS011;61478;50.820;4.330;2023-03-01T06:48:05;15.90;;;11.20;;
35522;SDS011;61478;50.820;4.330;2023-03-01T06:50:32;35.25;;;11.75;;
35522;SDS011;61478;50.820;4.330;2023-03-01T06:52:59;20.67;;;10.40;;
35522;SDS011;61478;50.820;4.330;2023-03-01T06:55:25;20.52;;;10.50;;
35522;SDS011;61478;50.820;4.330;2023-03-01T06:57:58;37.25;;;12.43;;
35522;SDS011;61478;50.820;4.330;2023-03-01T07:02:52;18.52;;;10.40;;
35522;SDS011;61478;50.820;4.330;2023-03-01T07:05:18;21.55;;;13.20;;
35522;SDS011;61478;50.820;4.330;2023-03-01T07:07:44;23.30;;;11.45;;
35522;SDS011;61478;50.820;4.330;2023-03-01T07:10:10;17.17;;;10.88;;
35522;SDS011;61478;50.820;4.330;2023-03-01T07:12:37;19.63;;;11.23;;
35522;SDS011;61478;50.820;4.330;2023-03-01T07:15:03;19.85;;;10.73;;
35522;SDS011;61478;50.820;4.330;2023-03-01T07:17:29;18.75;;;11.13;;
35522;SDS011;61478;50.820;4.330;2023-03-01T07:19:56;16.20;;;10.88;;
35522;SDS011;61478;50.820;4.330;2023-03-01T07:22:22;15.15;;;11.32;;
35522;SDS011;61478;50.820;4.330;2023-03-01T07:24:48;24.55;;;12.27;;
35522;SDS011;61478;50.820;4.330;2023-03-01T07:27:14;22.40;;;11.20;;
35522;SDS011;61478;50.820;4.330;2023-03-01T07:29:39;16.38;;;10.98;;
35522;SDS011;61478;50.820;4.330;2023-03-01T07:32:05;17.90;;;12.13;;
35522;SDS011;61478;50.820;4.330;2023-03-01T07:34:32;18.65;;;11.35;;
35522;SDS011;61478;50.820;4.330;2023-03-01T07:36:58;15.85;;;11.00;;
35522;SDS011;61478;50.820;4.330;2023-03-01T07:39:24;18.80;;;11.18;;
35522;SDS011;61478;50.820;4.330;2023-03-01T07:41:49;18.02;;;11.13;;
35522;SDS011;61478;50.820;4.330;2023-03-01T07:44:15;13.35;;;10.60;;
35522;SDS011;61478;50.820;4.330;2023-03-01T07:46:42;17.80;;;11.20;;
35522;SDS011;61478;50.820;4.330;2023-03-01T07:49:23;15.35;;;10.55;;
35522;SDS011;61478;50.820;4.330;2023-03-01T07:51:49;21.30;;;10.65;;
35522;SDS011;61478;50.820;4.330;2023-03-01T07:54:15;19.95;;;12.32;;
35522;SDS011;61478;50.820;4.330;2023-03-01T07:56:41;18.73;;;11.40;;
35522;SDS011;61478;50.820;4.330;2023-03-01T07:59:07;25.10;;;13.02;;
35522;SDS011;61478;50.820;4.330;2023-03-01T08:01:32;18.83;;;10.98;;
35522;SDS011;61478;50.820;4.330;2023-03-01T08:03:59;18.33;;;11.35;;
35522;SDS011;61478;50.820;4.330;2023-03-01T08:06:26;18.27;;;10.45;;
35522;SDS011;61478;50.820;4.330;2023-03-01T08:08:56;18.48;;;11.48;;
35522;SDS011;61478;50.820;4.330;2023-03-01T08:11:25;16.20;;;10.77;;
35522;SDS011;61478;50.820;4.330;2023-03-01T08:13:53;19.90;;;11.60;;
35522;SDS011;61478;50.820;4.330;2023-03-01T08:16:19;18.17;;;11.05;;
35522;SDS011;61478;50.820;4.330;2023-03-01T08:18:45;17.15;;;11.68;;
35522;SDS011;61478;50.820;4.330;2023-03-01T08:21:12;15.23;;;10.23;;
35522;SDS011;61478;50.820;4.330;2023-03-01T08:23:40;17.65;;;10.95;;
35522;SDS011;61478;50.820;4.330;2023-03-01T08:26:07;19.45;;;11.07;;
35522;SDS011;61478;50.820;4.330;2023-03-01T08:28:38;14.70;;;11.68;;
35522;SDS011;61478;50.820;4.330;2023-03-01T08:31:26;20.92;;;11.57;;
35522;SDS011;61478;50.820;4.330;2023-03-01T08:33:54;15.40;;;11.18;;
35522;SDS011;61478;50.820;4.330;2023-03-01T08:36:22;16.77;;;11.48;;
35522;SDS011;61478;50.820;4.330;2023-03-01T08:38:50;15.10;;;10.88;;
35522;SDS011;61478;50.820;4.330;2023-03-01T08:41:17;25.05;;;10.98;;
35522;SDS011;61478;50.820;4.330;2023-03-01T08:43:43;13.38;;;10.63;;
35522;SDS011;61478;50.820;4.330;2023-03-01T08:46:09;20.00;;;10.88;;
35522;SDS011;61478;50.820;4.330;2023-03-01T08:48:36;14.35;;;11.10;;
35522;SDS011;61478;50.820;4.330;2023-03-01T08:51:12;14.00;;;11.00;;
35522;SDS011;61478;50.820;4.330;2023-03-01T08:53:40;24.92;;;10.98;;
35522;SDS011;61478;50.820;4.330;2023-03-01T08:56:18;15.52;;;11.85;;
35522;SDS011;61478;50.820;4.330;2023-03-01T08:58:45;17.25;;;11.02;;
35522;SDS011;61478;50.820;4.330;2023-03-01T09:01:14;15.40;;;11.52;;
35522;SDS011;61478;50.820;4.330;2023-03-01T09:03:41;20.00;;;11.48;;
35522;SDS011;61478;50.820;4.330;2023-03-01T09:06:08;15.18;;;10.73;;
35522;SDS011;61478;50.820;4.330;2023-03-01T09:08:35;17.25;;;12.38;;
35522;SDS011;61478;50.820;4.330;2023-03-01T09:11:06;17.38;;;11.48;;
35522;SDS011;61478;50.820;4.330;2023-03-01T09:13:33;16.83;;;11.80;;
35522;SDS011;61478;50.820;4.330;2023-03-01T09:16:07;13.50;;;11.35;;
35522;SDS011;61478;50.820;4.330;2023-03-01T09:18:34;18.75;;;12.02;;
35522;SDS011;61478;50.820;4.330;2023-03-01T09:21:04;18.63;;;11.50;;
35522;SDS011;61478;50.820;4.330;2023-03-01T09:23:40;18.75;;;12.25;;
35522;SDS011;61478;50.820;4.330;2023-03-01T09:26:08;14.25;;;11.45;;
35522;SDS011;61478;50.820;4.330;2023-03-01T09:28:47;17.98;;;12.18;;
35522;SDS011;61478;50.820;4.330;2023-03-01T09:31:16;21.00;;;12.48;;
35522;SDS011;61478;50.820;4.330;2023-03-01T09:33:45;16.02;;;12.20;;
35522;SDS011;61478;50.820;4.330;2023-03-01T09:36:14;15.88;;;11.30;;
35522;SDS011;61478;50.820;4.330;2023-03-01T09:38:44;17.77;;;11.90;;
35522;SDS011;61478;50.820;4.330;2023-03-01T09:44:01;15.43;;;11.75;;
35522;SDS011;61478;50.820;4.330;2023-03-01T09:46:30;16.77;;;11.65;;
35522;SDS011;61478;50.820;4.330;2023-03-01T09:49:03;13.18;;;10.98;;
35522;SDS011;61478;50.820;4.330;2023-03-01T09:51:35;19.42;;;12.20;;
35522;SDS011;61478;50.820;4.330;2023-03-01T09:54:03;15.20;;;11.30;;
35522;SDS011;61478;50.820;4.330;2023-03-01T10:02:01;28.42;;;13.10;;
35522;SDS011;61478;50.820;4.330;2023-03-01T10:07:02;19.92;;;12.57;;
35522;SDS011;61478;50.820;4.330;2023-03-01T10:09:39;25.13;;;12.85;;
35522;SDS011;61478;50.820;4.330;2023-03-01T10:12:14;20.48;;;13.50;;
35522;SDS011;61478;50.820;4.330;2023-03-01T10:14:55;18.45;;;12.73;;
35522;SDS011;61478;50.820;4.330;2023-03-01T10:17:33;15.82;;;12.63;;
35522;SDS011;61478;50.820;4.330;2023-03-01T10:20:20;17.98;;;13.00;;
35522;SDS011;61478;50.820;4.330;2023-03-01T10:22:58;18.70;;;13.30;;
35522;SDS011;61478;50.820;4.330;2023-03-01T10:25:36;15.70;;;12.02;;
35522;SDS011;61478;50.820;4.330;2023-03-01T10:28:25;17.33;;;12.27;;
35522;SDS011;61478;50.820;4.330;2023-03-01T10:31:04;17.80;;;11.82;;
35522;SDS011;61478;50.820;4.330;2023-03-01T10:33:37;16.95;;;11.60;;
35522;SDS011;61478;50.820;4.330;2023-03-01T10:36:06;16.35;;;12.25;;
35522;SDS011;61478;50.820;4.330;2023-03-01T10:38:46;17.08;;;12.00;;
35522;SDS011;61478;50.820;4.330;2023-03-01T10:41:24;15.63;;;12.00;;
35522;SDS011;61478;50.820;4.330;2023-03-01T10:43:54;17.60;;;12.20;;
35522;SDS011;61478;50.820;4.330;2023-03-01T10:49:35;17.52;;;10.82;;
35522;SDS011;61478;50.820;4.330;2023-03-01T10:51:43;15.80;;;10.70;;
35522;SDS011;61478;50.820;4.330;2023-03-01T10:54:44;16.92;;;10.88;;
35522;SDS011;61478;50.820;4.330;2023-03-01T10:57:05;13.23;;;10.25;;
35522;SDS011;61478;50.820;4.330;2023-03-01T10:59:51;16.58;;;10.85;;
35522;SDS011;61478;50.820;4.330;2023-03-01T11:02:29;17.00;;;10.52;;
35522;SDS011;61478;50.820;4.330;2023-03-01T11:05:03;16.10;;;10.43;;
35522;SDS011;61478;50.820;4.330;2023-03-01T11:07:49;15.38;;;10.40;;
35522;SDS011;61478;50.820;4.330;2023-03-01T11:10:27;12.93;;;9.90;;
35522;SDS011;61478;50.820;4.330;2023-03-01T11:13:14;12.65;;;9.65;;
35522;SDS011;61478;50.820;4.330;2023-03-01T11:16:04;17.80;;;9.65;;
35522;SDS011;61478;50.820;4.330;2023-03-01T11:18:33;15.82;;;9.25;;
35522;SDS011;61478;50.820;4.330;2023-03-01T11:20:59;12.65;;;9.65;;
35522;SDS011;61478;50.820;4.330;2023-03-01T11:23:27;13.63;;;8.90;;
35522;SDS011;61478;50.820;4.330;2023-03-01T11:25:59;12.77;;;8.70;;
35522;SDS011;61478;50.820;4.330;2023-03-01T11:28:30;24.30;;;9.75;;
35522;SDS011;61478;50.820;4.330;2023-03-01T11:31:02;19.73;;;8.45;;
35522;SDS011;61478;50.820;4.330;2023-03-01T11:36:01;10.55;;;8.73;;
35522;SDS011;61478;50.820;4.330;2023-03-01T11:38:47;11.77;;;9.05;;
35522;SDS011;61478;50.820;4.330;2023-03-01T11:41:18;13.85;;;9.57;;
35522;SDS011;61478;50.820;4.330;2023-03-01T11:51:55;12.02;;;8.15;;
35522;SDS011;61478;50.820;4.330;2023-03-01T12:00:25;17.27;;;9.27;;
35522;SDS011;61478;50.820;4.330;2023-03-01T12:08:41;21.23;;;10.07;;
35522;SDS011;61478;50.820;4.330;2023-03-01T12:14:02;13.25;;;8.35;;
35522;SDS011;61478;50.820;4.330;2023-03-01T12:17:04;11.50;;;8.15;;
35522;SDS011;61478;50.820;4.330;2023-03-01T12:22:51;12.80;;;8.68;;
35522;SDS011;61478;50.820;4.330;2023-03-01T12:25:39;14.75;;;8.63;;
35522;SDS011;61478;50.820;4.330;2023-03-01T12:28:38;14.60;;;8.77;;
35522;SDS011;61478;50.820;4.330;2023-03-01T12:50:43;11.05;;;8.25;;
35522;SDS011;61478;50.820;4.330;2023-03-01T12:55:49;11.50;;;8.40;;
35522;SDS011;61478;50.820;4.330;2023-03-01T12:58:23;13.30;;;7.95;;
35522;SDS011;61478;50.820;4.330;2023-03-01T13:06:48;12.98;;;9.07;;
35522;SDS011;61478;50.820;4.330;2023-03-01T13:09:34;10.90;;;8.45;;
35522;SDS011;61478;50.820;4.330;2023-03-01T13:17:50;16.13;;;11.32;;
35522;SDS011;61478;50.820;4.330;2023-03-01T13:20:26;13.02;;;8.07;;
35522;SDS011;61478;50.820;4.330;2023-03-01T13:23:02;10.40;;;8.60;;
35522;SDS011;61478;50.820;4.330;2023-03-01T13:28:36;12.73;;;8.40;;
35522;SDS011;61478;50.820;4.330;2023-03-01T13:33:48;11.05;;;8.20;;
35522;SDS011;61478;50.820;4.330;2023-03-01T13:38:58;15.60;;;9.38;;
35522;SDS011;61478;50.820;4.330;2023-03-01T13:46:52;16.42;;;8.35;;
35522;SDS011;61478;50.820;4.330;2023-03-01T13:49:22;11.85;;;8.50;;
35522;SDS011;61478;50.820;4.330;2023-03-01T13:51:52;18.20;;;8.75;;
35522;SDS011;61478;50.820;4.330;2023-03-01T13:54:39;12.70;;;9.07;;
35522;SDS011;61478;50.820;4.330;2023-03-01T13:57:05;12.57;;;8.60;;
35522;SDS011;61478;50.820;4.330;2023-03-01T13:59:47;14.00;;;8.77;;
35522;SDS011;61478;50.820;4.330;2023-03-01T14:02:13;13.85;;;8.93;;
35522;SDS011;61478;50.820;4.330;2023-03-01T14:04:42;21.60;;;9.32;;
35522;SDS011;61478;50.820;4.330;2023-03-01T14:09:42;13.57;;;8.40;;
35522;SDS011;61478;50.820;4.330;2023-03-01T14:14:41;16.42;;;9.05;;
35522;SDS011;61478;50.820;4.330;2023-03-01T14:22:45;14.43;;;8.75;;
35522;SDS011;61478;50.820;4.330;2023-03-01T14:28:01;13.95;;;8.32;;
35522;SDS011;61478;50.820;4.330;2023-03-01T14:30:40;16.52;;;9.57;;
35522;SDS011;61478;50.820;4.330;2023-03-01T14:33:19;15.57;;;9.73;;
35522;SDS011;61478;50.820;4.330;2023-03-01T14:35:59;13.20;;;9.10;;
35522;SDS011;61478;50.820;4.330;2023-03-01T14:38:32;15.38;;;8.82;;
35522;SDS011;61478;50.820;4.330;2023-03-01T14:41:10;13.45;;;9.23;;
35522;SDS011;61478;50.820;4.330;2023-03-01T14:43:43;12.38;;;8.80;;
35522;SDS011;61478;50.820;4.330;2023-03-01T14:49:08;18.05;;;9.18;;
35522;SDS011;61478;50.820;4.330;2023-03-01T14:52:00;17.50;;;9.40;;
35522;SDS011;61478;50.820;4.330;2023-03-01T14:57:15;13.35;;;10.00;;
35522;SDS011;61478;50.820;4.330;2023-03-01T14:59:44;16.08;;;9.55;;
35522;SDS011;61478;50.820;4.330;2023-03-01T15:02:17;11.95;;;8.75;;
35522;SDS011;61478;50.820;4.330;2023-03-01T15:04:46;13.73;;;9.38;;
35522;SDS011;61478;50.820;4.330;2023-03-01T15:07:15;13.32;;;9.38;;
35522;SDS011;61478;50.820;4.330;2023-03-01T15:09:47;12.23;;;8.65;;
35522;SDS011;61478;50.820;4.330;2023-03-01T15:14:55;11.15;;;9.07;;
35522;SDS011;61478;50.820;4.330;2023-03-01T15:17:33;18.17;;;10.73;;
35522;SDS011;61478;50.820;4.330;2023-03-01T15:20:18;13.40;;;9.77;;
35522;SDS011;61478;50.820;4.330;2023-03-01T15:22:53;16.17;;;10.05;;
35522;SDS011;61478;50.820;4.330;2023-03-01T15:25:27;15.90;;;10.57;;
35522;SDS011;61478;50.820;4.330;2023-03-01T15:27:55;16.30;;;9.13;;
35522;SDS011;61478;50.820;4.330;2023-03-01T15:30:27;11.77;;;8.90;;
35522;SDS011;61478;50.820;4.330;2023-03-01T15:36:01;15.40;;;9.30;;
35522;SDS011;61478;50.820;4.330;2023-03-01T15:46:44;15.50;;;9.57;;
35522;SDS011;61478;50.820;4.330;2023-03-01T15:52:00;16.15;;;10.20;;
35522;SDS011;61478;50.820;4.330;2023-03-01T15:54:28;14.27;;;10.63;;
35522;SDS011;61478;50.820;4.330;2023-03-01T15:57:05;24.13;;;12.48;;
35522;SDS011;61478;50.820;4.330;2023-03-01T15:59:36;12.95;;;9.75;;
35522;SDS011;61478;50.820;4.330;2023-03-01T16:02:10;20.80;;;10.98;;
35522;SDS011;61478;50.820;4.330;2023-03-01T16:04:38;16.02;;;8.20;;
35522;SDS011;61478;50.820;4.330;2023-03-01T16:07:10;19.77;;;10.52;;
35522;SDS011;61478;50.820;4.330;2023-03-01T16:09:36;16.63;;;10.95;;
35522;SDS011;61478;50.820;4.330;2023-03-01T16:12:04;20.27;;;9.38;;
35522;SDS011;61478;50.820;4.330;2023-03-01T16:14:37;13.40;;;8.55;;
35522;SDS011;61478;50.820;4.330;2023-03-01T16:17:03;10.25;;;8.52;;
35522;SDS011;61478;50.820;4.330;2023-03-01T16:19:29;14.30;;;9.80;;
35522;SDS011;61478;50.820;4.330;2023-03-01T16:21:55;12.07;;;8.63;;
35522;SDS011;61478;50.820;4.330;2023-03-01T16:24:21;17.13;;;10.48;;
35522;SDS011;61478;50.820;4.330;2023-03-01T16:26:47;14.68;;;9.55;;
35522;SDS011;61478;50.820;4.330;2023-03-01T16:29:16;17.48;;;9.60;;
35522;SDS011;61478;50.820;4.330;2023-03-01T16:31:48;13.45;;;9.38;;
35522;SDS011;61478;50.820;4.330;2023-03-01T16:34:20;20.73;;;11.15;;
35522;SDS011;61478;50.820;4.330;2023-03-01T16:36:56;22.48;;;10.18;;
35522;SDS011;61478;50.820;4.330;2023-03-01T16:39:26;16.85;;;10.45;;
35522;SDS011;61478;50.820;4.330;2023-03-01T16:41:59;19.05;;;9.70;;
35522;SDS011;61478;50.820;4.330;2023-03-01T16:44:26;12.57;;;9.38;;
35522;SDS011;61478;50.820;4.330;2023-03-01T16:46:56;16.27;;;9.43;;
35522;SDS011;61478;50.820;4.330;2023-03-01T16:49:28;17.77;;;10.18;;
35522;SDS011;61478;50.820;4.330;2023-03-01T16:52:03;15.05;;;10.63;;
35522;SDS011;61478;50.820;4.330;2023-03-01T16:54:32;15.90;;;9.88;;
35522;SDS011;61478;50.820;4.330;2023-03-01T16:57:02;21.65;;;10.57;;
35522;SDS011;61478;50.820;4.330;2023-03-01T16:59:31;16.30;;;9.50;;
35522;SDS011;61478;50.820;4.330;2023-03-01T17:01:59;12.02;;;9.10;;
35522;SDS011;61478;50.820;4.330;2023-03-01T17:04:30;18.23;;;9.65;;
35522;SDS011;61478;50.820;4.330;2023-03-01T17:07:11;13.73;;;9.80;;
35522;SDS011;61478;50.820;4.330;2023-03-01T17:09:37;15.35;;;9.23;;
35522;SDS011;61478;50.820;4.330;2023-03-01T17:12:04;13.40;;;9.25;;
35522;SDS011;61478;50.820;4.330;2023-03-01T17:14:30;16.90;;;8.73;;
35522;SDS011;61478;50.820;4.330;2023-03-01T17:16:57;13.68;;;9.18;;
35522;SDS011;61478;50.820;4.330;2023-03-01T17:19:30;15.07;;;9.48;;